Time;durP1;ratioP1;P1;durP2;ratioP2;P2;SDS_P1;SDS_P2;PMS_P1;PMS_P2;Temp;Humidity;BMP_temperature;BMP_pressure;BME280_temperature;BME280_humidity;BME280_pressure;Samples;Min_cycle;Max_cycle;Signal;HPM_P1;HPM_P2
2021/12/22 00:00:31;;;;;;;7.35;4.72;;;-7.90;76.80;;;;;;5049414;28;20543;-84
2021/12/22 00:02:58;;;;;;;7.45;4.47;;;-7.90;76.80;;;;;;5044332;28;20029;-85
2021/12/22 00:05:28;;;;;;;11.93;6.03;;;-8.00;76.70;;;;;;5042161;28;20100;-82
2021/12/22 00:07:54;;;;;;;4.35;3.83;;;-8.00;76.80;;;;;;5042527;28;20030;-83
2021/12/22 00:10:21;;;;;;;8.18;3.67;;;-8.10;76.80;;;;;;5042415;28;20063;-84
2021/12/22 00:12:49;;;;;;;7.47;3.33;;;-8.10;76.90;;;;;;5050709;28;20068;-84
2021/12/22 00:15:15;;;;;;;11.93;6.50;;;-8.00;77.00;;;;;;5037473;28;20104;-84
2021/12/22 00:17:41;;;;;;;5.07;3.83;;;-8.10;76.80;;;;;;5037911;28;20030;-83
2021/12/22 00:20:09;;;;;;;6.97;4.60;;;-8.20;76.60;;;;;;5039256;28;20406;-83
2021/12/22 00:22:35;;;;;;;6.78;5.28;;;-8.20;76.80;;;;;;5044243;28;20032;-83
2021/12/22 00:25:02;;;;;;;5.65;4.00;;;-8.30;76.80;;;;;;5044984;28;20467;-82
2021/12/22 00:27:28;;;;;;;6.68;4.60;;;-8.30;76.80;;;;;;5051602;28;20478;-84
2021/12/22 00:29:54;;;;;;;3.80;3.42;;;-8.30;76.50;;;;;;5038696;28;20036;-84
2021/12/22 00:32:21;;;;;;;5.68;3.85;;;-8.40;76.50;;;;;;5045848;28;20029;-82
2021/12/22 00:34:52;;;;;;;6.88;3.30;;;-8.40;76.50;;;;;;5040949;28;20032;-81
2021/12/22 00:37:23;;;;;;;6.88;3.83;;;-8.50;76.30;;;;;;5047115;28;20451;-83
2021/12/22 00:39:50;;;;;;;4.53;4.13;;;-8.50;76.30;;;;;;5044133;28;20034;-84
2021/12/22 00:42:17;;;;;;;5.63;4.25;;;-8.60;76.30;;;;;;5039006;28;20045;-85
2021/12/22 00:44:46;;;;;;;5.60;3.38;;;-8.60;76.40;;;;;;5037607;28;20032;-82
2021/12/22 00:47:12;;;;;;;4.75;4.28;;;-8.70;76.30;;;;;;5041376;28;20755;-82
2021/12/22 00:49:37;;;;;;;8.55;5.50;;;-8.70;76.30;;;;;;5033591;28;20079;-83
2021/12/22 00:52:04;;;;;;;4.72;4.30;;;-8.70;76.40;;;;;;5040459;28;20038;-83
2021/12/22 00:54:29;;;;;;;5.78;3.70;;;-8.80;76.30;;;;;;5033281;28;20037;-83
2021/12/22 00:57:02;;;;;;;8.23;3.58;;;-8.90;76.50;;;;;;5043215;28;20030;-84
2021/12/22 00:59:27;;;;;;;7.95;4.88;;;-8.90;76.60;;;;;;5038965;28;20033;-84
2021/12/22 01:01:53;;;;;;;7.03;5.57;;;-8.90;76.60;;;;;;5041164;28;20041;-80
2021/12/22 01:04:19;;;;;;;5.25;4.22;;;-8.90;76.70;;;;;;5033861;28;20100;-79
2021/12/22 01:06:45;;;;;;;3.75;3.45;;;-8.90;76.60;;;;;;5042566;28;20028;-84
2021/12/22 01:09:11;;;;;;;7.07;4.53;;;-8.90;76.60;;;;;;5039181;28;20120;-82
2021/12/22 01:11:37;;;;;;;7.93;5.43;;;-8.90;76.50;;;;;;5038273;28;20048;-79
2021/12/22 01:14:03;;;;;;;7.07;4.20;;;-9.00;76.40;;;;;;5044538;28;20083;-82
2021/12/22 01:16:30;;;;;;;6.22;5.07;;;-9.00;76.40;;;;;;5046752;28;20390;-81
2021/12/22 01:18:58;;;;;;;4.38;3.97;;;-9.10;76.60;;;;;;5045810;28;20112;-81
2021/12/22 01:21:46;;;;;;;12.20;4.72;;;-9.10;76.80;;;;;;5037227;28;20045;-80
2021/12/22 01:24:29;;;;;;;4.18;3.78;;;-9.10;77.00;;;;;;5038759;28;20075;-81
2021/12/22 01:27:03;;;;;;;10.23;4.32;;;-9.10;76.90;;;;;;5044045;28;20102;-82
2021/12/22 01:29:30;;;;;;;7.28;4.28;;;-9.00;76.90;;;;;;5038316;28;20120;-82
2021/12/22 01:31:57;;;;;;;5.30;4.75;;;-9.00;76.70;;;;;;5044442;28;20029;-81
2021/12/22 01:34:27;;;;;;;11.02;4.90;;;-9.00;76.90;;;;;;5046657;28;20025;-82
2021/12/22 01:36:53;;;;;;;5.25;4.28;;;-8.90;76.70;;;;;;5052166;28;20056;-82
2021/12/22 01:39:19;;;;;;;10.73;5.43;;;-8.90;76.50;;;;;;5043014;28;20042;-83
2021/12/22 01:41:45;;;;;;;5.53;4.65;;;-9.00;76.30;;;;;;5044326;28;20028;-82
2021/12/22 01:44:13;;;;;;;11.93;5.22;;;-9.00;76.40;;;;;;5039992;28;20430;-78
2021/12/22 01:49:11;;;;;;;7.35;5.80;;;-9.00;76.30;;;;;;5043399;28;20029;-80
2021/12/22 01:52:00;;;;;;;7.95;4.13;;;-8.90;76.40;;;;;;5050076;28;20030;-81
2021/12/22 01:54:42;;;;;;;6.43;5.82;;;-9.00;76.20;;;;;;5048689;28;20029;-82
2021/12/22 01:57:11;;;;;;;6.47;5.55;;;-9.00;76.20;;;;;;5049187;28;20368;-82
2021/12/22 01:59:38;;;;;;;14.60;6.68;;;-9.10;76.20;;;;;;5041329;28;20095;-84
2021/12/22 02:02:07;;;;;;;18.45;8.23;;;-9.10;76.20;;;;;;5034588;28;20021;-81
2021/12/22 02:04:33;;;;;;;9.00;7.05;;;-9.10;76.20;;;;;;5036204;28;20030;-79
2021/12/22 02:06:59;;;;;;;10.93;6.53;;;-9.20;76.10;;;;;;5035903;28;20112;-79
2021/12/22 02:11:53;;;;;;;15.57;6.65;;;-9.30;76.30;;;;;;5043810;28;20056;-82
2021/12/22 02:14:19;;;;;;;7.55;6.20;;;-9.40;75.80;;;;;;5039456;28;20029;-83
2021/12/22 02:16:44;;;;;;;11.82;6.68;;;-9.60;76.00;;;;;;5038360;28;20025;-81
2021/12/22 02:19:11;;;;;;;9.73;5.93;;;-9.60;76.30;;;;;;5043419;28;20437;-82
2021/12/22 02:21:44;;;;;;;5.65;4.35;;;-9.70;76.40;;;;;;5051074;28;20398;-81
2021/12/22 02:24:10;;;;;;;10.18;6.70;;;-9.80;76.70;;;;;;5041055;28;20033;-85
2021/12/22 02:26:48;;;;;;;9.13;5.78;;;-9.70;77.20;;;;;;5050518;28;20017;-83
2021/12/22 02:29:23;;;;;;;8.68;6.32;;;-9.70;77.30;;;;;;5040689;28;20100;-79
2021/12/22 02:32:10;;;;;;;4.43;4.13;;;-9.60;77.30;;;;;;5039039;28;20051;-82
2021/12/22 02:34:43;;;;;;;14.13;5.95;;;-9.60;77.30;;;;;;5042558;28;20021;-82
2021/12/22 02:37:15;;;;;;;12.90;6.65;;;-9.50;77.20;;;;;;5042269;28;20394;-80
2021/12/22 02:39:46;;;;;;;11.27;7.03;;;-9.50;76.80;;;;;;5046182;28;20048;-79
2021/12/22 02:42:13;;;;;;;10.80;4.63;;;-9.50;76.80;;;;;;5038320;28;20043;-81
2021/12/22 02:44:38;;;;;;;10.10;5.88;;;-9.50;76.80;;;;;;5042167;28;20037;-80
2021/12/22 02:47:23;;;;;;;9.65;5.45;;;-9.50;76.70;;;;;;5044313;28;20030;-79
2021/12/22 02:49:49;;;;;;;7.18;6.13;;;-9.50;76.80;;;;;;5042490;28;20025;-80
2021/12/22 02:52:16;;;;;;;6.15;3.55;;;-9.50;76.80;;;;;;5035416;28;20025;-79
2021/12/22 02:54:48;;;;;;;8.45;6.15;;;-9.50;76.70;;;;;;5046318;28;20032;-78
2021/12/22 02:57:37;;;;;;;6.40;5.63;;;-9.60;76.70;;;;;;5036269;28;20029;-83
2021/12/22 03:03:10;;;;;;;8.13;6.30;;;-9.70;76.70;;;;;;5042084;28;20460;-80
2021/12/22 03:05:38;;;;;;;8.50;5.88;;;-9.80;76.90;;;;;;5037190;28;20025;-79
2021/12/22 03:08:04;;;;;;;9.73;6.32;;;-9.80;77.20;;;;;;5049502;28;20104;-81
2021/12/22 03:10:30;;;;;;;4.75;4.35;;;-9.80;77.20;;;;;;5041787;28;20197;-81
2021/12/22 03:13:01;;;;;;;4.03;3.67;;;-9.80;77.00;;;;;;5041318;28;20054;-80
2021/12/22 03:15:27;;;;;;;13.05;7.72;;;-9.80;77.50;;;;;;5036886;28;20021;-81
2021/12/22 03:17:53;;;;;;;7.13;5.45;;;-9.70;77.60;;;;;;5036518;28;20037;-81
2021/12/22 03:20:19;;;;;;;3.88;3.58;;;-9.80;77.20;;;;;;5042990;28;20094;-82
2021/12/22 03:22:46;;;;;;;10.30;4.47;;;-9.80;77.10;;;;;;5045621;28;20025;-82
2021/12/22 03:25:15;;;;;;;9.45;6.03;;;-9.90;77.10;;;;;;5034372;28;20108;-77
2021/12/22 03:27:43;;;;;;;6.35;5.10;;;-9.90;77.30;;;;;;5036126;28;20148;-83
2021/12/22 03:30:10;;;;;;;23.10;5.20;;;-9.90;77.60;;;;;;5039853;28;20032;-79
2021/12/22 03:32:36;;;;;;;9.35;5.32;;;-9.90;77.80;;;;;;5038503;28;20486;-81
2021/12/22 03:35:01;;;;;;;10.02;5.63;;;-9.90;77.70;;;;;;5040817;28;20033;-78
2021/12/22 03:37:27;;;;;;;4.22;3.90;;;-9.90;77.70;;;;;;5041519;28;20021;-81
2021/12/22 03:39:53;;;;;;;6.63;6.05;;;-9.80;77.70;;;;;;5037513;28;20072;-82
2021/12/22 03:42:18;;;;;;;8.77;6.20;;;-9.80;77.70;;;;;;5033089;28;20025;-83
2021/12/22 03:44:45;;;;;;;7.68;5.85;;;-9.70;77.70;;;;;;5047685;28;20036;-81
2021/12/22 03:47:11;;;;;;;12.52;7.43;;;-9.70;77.60;;;;;;5033533;28;20036;-79
2021/12/22 03:49:37;;;;;;;6.32;5.55;;;-9.70;77.60;;;;;;5033630;28;20483;-83
2021/12/22 03:52:04;;;;;;;6.05;5.45;;;-9.80;77.30;;;;;;5042194;28;20036;-82
2021/12/22 03:54:30;;;;;;;11.05;6.47;;;-9.80;77.30;;;;;;5037701;28;20040;-79
2021/12/22 03:56:55;;;;;;;14.07;7.63;;;-9.80;77.60;;;;;;5034369;28;20029;-83
2021/12/22 03:59:22;;;;;;;5.03;4.68;;;-9.80;77.60;;;;;;5048181;28;20045;-82
2021/12/22 04:01:49;;;;;;;7.85;7.05;;;-9.90;77.60;;;;;;5037854;28;20078;-80
2021/12/22 04:04:17;;;;;;;14.75;6.75;;;-9.80;77.70;;;;;;5042421;28;20091;-80
2021/12/22 04:06:45;;;;;;;5.28;4.68;;;-9.80;77.70;;;;;;5038564;28;20109;-79
2021/12/22 04:09:13;;;;;;;4.90;4.43;;;-9.90;77.50;;;;;;5039013;28;20025;-77
2021/12/22 04:11:39;;;;;;;5.00;4.45;;;-9.90;77.70;;;;;;5038704;28;20053;-80
2021/12/22 04:14:05;;;;;;;6.63;6.00;;;-9.90;77.70;;;;;;5044733;28;20120;-81
2021/12/22 04:16:30;;;;;;;8.25;5.07;;;-9.80;77.90;;;;;;5045882;28;20029;-79
2021/12/22 04:18:56;;;;;;;6.18;5.63;;;-9.80;77.90;;;;;;5038522;28;20129;-78
2021/12/22 04:21:22;;;;;;;7.72;6.88;;;-9.80;77.80;;;;;;5046928;28;20036;-78
2021/12/22 04:23:48;;;;;;;4.78;4.47;;;-9.80;77.50;;;;;;5034570;28;20024;-79
2021/12/22 04:26:13;;;;;;;10.48;5.60;;;-9.80;77.60;;;;;;5042199;28;20037;-79
2021/12/22 04:28:40;;;;;;;10.27;6.30;;;-9.80;77.70;;;;;;5036608;28;20025;-83
2021/12/22 04:31:06;;;;;;;15.88;7.18;;;-9.80;77.60;;;;;;5041650;28;20022;-83
2021/12/22 04:33:31;;;;;;;5.47;4.55;;;-9.80;77.60;;;;;;5037002;28;20436;-79
2021/12/22 04:35:57;;;;;;;7.55;4.75;;;-9.80;77.60;;;;;;5046445;28;20029;-82
2021/12/22 04:38:24;;;;;;;8.20;5.90;;;-9.80;77.60;;;;;;5040080;28;20029;-84
2021/12/22 04:40:50;;;;;;;6.07;4.88;;;-9.90;77.70;;;;;;5047051;28;20533;-84
2021/12/22 04:43:15;;;;;;;6.35;5.78;;;-9.90;77.80;;;;;;5043215;28;20029;-82
2021/12/22 04:45:43;;;;;;;5.90;5.25;;;-9.90;77.70;;;;;;5048825;28;20025;-84
2021/12/22 04:48:10;;;;;;;8.70;7.53;;;-9.90;77.70;;;;;;5035911;28;20026;-83
2021/12/22 04:50:36;;;;;;;7.47;5.57;;;-9.90;77.70;;;;;;5038243;28;20040;-79
2021/12/22 04:53:14;;;;;;;5.10;4.70;;;-9.90;77.70;;;;;;5038823;28;20021;-82
2021/12/22 04:55:40;;;;;;;7.10;5.70;;;-9.90;77.80;;;;;;5045831;28;20028;-82
2021/12/22 04:58:06;;;;;;;8.63;6.22;;;-9.90;77.80;;;;;;5048516;28;20036;-82
2021/12/22 05:00:35;;;;;;;7.57;5.72;;;-9.90;77.90;;;;;;5048526;28;20036;-84
2021/12/22 05:03:01;;;;;;;9.93;7.07;;;-9.90;77.80;;;;;;5046043;28;20179;-83
2021/12/22 05:05:28;;;;;;;18.13;9.35;;;-10.00;77.80;;;;;;5051036;28;20104;-83
2021/12/22 05:07:53;;;;;;;21.73;8.27;;;-10.00;77.80;;;;;;5056137;28;20111;-83
2021/12/22 05:10:20;;;;;;;8.52;7.25;;;-9.90;77.90;;;;;;5039459;28;20458;-82
2021/12/22 05:12:46;;;;;;;19.15;9.43;;;-10.00;77.80;;;;;;5040941;28;20111;-84
2021/12/22 05:15:13;;;;;;;8.43;7.50;;;-10.00;77.80;;;;;;5044067;28;20087;-78
2021/12/22 05:20:12;;;;;;;7.93;7.22;;;-10.00;78.00;;;;;;5049647;28;20044;-80
2021/12/22 05:22:39;;;;;;;8.93;7.28;;;-9.90;78.10;;;;;;5037199;28;20026;-82
2021/12/22 05:25:07;;;;;;;8.70;6.53;;;-9.90;78.00;;;;;;5042691;28;20033;-82
2021/12/22 05:27:32;;;;;;;5.82;5.18;;;-9.90;78.00;;;;;;5044030;28;20041;-81
2021/12/22 05:29:58;;;;;;;12.38;6.68;;;-9.90;77.90;;;;;;5046525;28;20491;-81
2021/12/22 05:32:30;;;;;;;5.20;4.75;;;-9.90;77.90;;;;;;5040568;28;20052;-82
2021/12/22 05:34:56;;;;;;;7.72;4.55;;;-10.00;77.80;;;;;;5047072;28;20390;-85
2021/12/22 05:37:22;;;;;;;5.88;4.47;;;-10.00;78.00;;;;;;5045746;28;20471;-80
2021/12/22 05:39:48;;;;;;;6.28;5.60;;;-10.00;77.90;;;;;;5041485;28;20088;-82
2021/12/22 05:42:13;;;;;;;4.35;3.95;;;-9.90;78.10;;;;;;5047652;28;20116;-84
2021/12/22 05:44:39;;;;;;;4.93;4.53;;;-9.90;78.20;;;;;;5040290;28;20024;-82
2021/12/22 05:47:05;;;;;;;6.05;5.20;;;-9.90;78.10;;;;;;5043010;28;20140;-79
2021/12/22 05:49:31;;;;;;;5.85;5.35;;;-9.90;78.10;;;;;;5045120;28;20033;-76
2021/12/22 05:51:56;;;;;;;8.18;5.68;;;-9.90;78.20;;;;;;5035571;28;20030;-80
2021/12/22 05:54:22;;;;;;;5.97;5.40;;;-9.80;78.40;;;;;;5038992;28;20095;-80
2021/12/22 05:56:48;;;;;;;9.82;6.47;;;-9.80;78.60;;;;;;5034839;28;20135;-78
2021/12/22 05:59:14;;;;;;;10.38;7.82;;;-9.70;78.90;;;;;;5043492;28;20128;-83
2021/12/22 06:01:39;;;;;;;7.57;5.80;;;-9.60;79.60;;;;;;5053299;28;20418;-81
2021/12/22 06:04:06;;;;;;;13.48;6.78;;;-9.40;80.40;;;;;;5047806;28;20068;-82
2021/12/22 06:06:32;;;;;;;11.07;6.90;;;-9.10;81.20;;;;;;5041055;28;20025;-76
2021/12/22 06:08:58;;;;;;;8.02;5.28;;;-8.80;81.60;;;;;;5041570;28;20437;-73
2021/12/22 06:11:24;;;;;;;3.92;3.53;;;-8.30;82.10;;;;;;5042526;28;20079;-72
2021/12/22 06:13:49;;;;;;;18.75;6.25;;;-7.90;81.90;;;;;;5034883;28;20136;-71
2021/12/22 06:16:15;;;;;;;9.93;7.63;;;-7.50;81.40;;;;;;5038642;28;20539;-71
2021/12/22 06:18:44;;;;;;;21.55;8.77;;;-7.10;81.60;;;;;;5040068;28;20043;-71
2021/12/22 06:21:11;;;;;;;10.73;6.95;;;-6.60;81.90;;;;;;5050502;28;20033;-72
2021/12/22 06:23:38;;;;;;;15.15;6.47;;;-6.00;81.90;;;;;;5046777;28;20067;-79
2021/12/22 06:26:04;;;;;;;19.88;6.57;;;-5.50;81.40;;;;;;5040357;28;20028;-69
2021/12/22 06:28:29;;;;;;;11.82;8.82;;;-4.90;81.10;;;;;;5045449;28;20020;-71
2021/12/22 06:30:55;;;;;;;24.60;10.02;;;-4.50;80.50;;;;;;5044473;28;20511;-73
2021/12/22 06:33:21;;;;;;;14.15;9.40;;;-4.20;79.60;;;;;;5044976;28;20025;-78
2021/12/22 06:35:48;;;;;;;19.58;11.40;;;-4.10;78.40;;;;;;5041143;28;20059;-71
2021/12/22 06:38:15;;;;;;;21.33;8.70;;;-4.10;77.80;;;;;;5043028;28;20065;-71
2021/12/22 06:40:41;;;;;;;21.55;12.80;;;-4.40;76.40;;;;;;5046583;28;20124;-79
2021/12/22 06:43:07;;;;;;;15.88;9.40;;;-4.60;76.00;;;;;;5054559;28;20040;-79
2021/12/22 06:45:33;;;;;;;21.83;8.93;;;-4.90;74.70;;;;;;5041258;28;20025;-80
2021/12/22 06:47:59;;;;;;;22.73;12.10;;;-5.20;74.40;;;;;;5044575;28;20033;-77
2021/12/22 06:50:25;;;;;;;28.80;12.68;;;-5.60;74.30;;;;;;5043283;28;20036;-80
2021/12/22 06:52:50;;;;;;;21.58;10.95;;;-5.90;74.80;;;;;;5042568;28;20033;-77
2021/12/22 06:55:17;;;;;;;14.02;7.70;;;-5.70;78.70;;;;;;5042679;28;20032;-76
2021/12/22 06:57:42;;;;;;;20.70;9.15;;;-5.10;81.60;;;;;;5036992;28;20086;-73
2021/12/22 07:00:10;;;;;;;9.98;5.70;;;-4.20;83.20;;;;;;5044938;28;20045;-75
2021/12/22 07:02:38;;;;;;;19.20;9.00;;;-3.30;82.60;;;;;;5038368;28;20088;-72
2021/12/22 07:05:09;;;;;;;15.27;8.10;;;-2.50;81.30;;;;;;5039254;28;20029;-82
2021/12/22 07:07:35;;;;;;;42.47;29.75;;;-1.80;79.60;;;;;;5048096;28;20033;-76
2021/12/22 07:10:03;;;;;;;24.17;12.02;;;-1.20;75.60;;;;;;5045241;28;20034;-71
2021/12/22 07:12:29;;;;;;;29.52;11.02;;;-0.80;72.90;;;;;;5049023;28;20099;-74
2021/12/22 07:14:54;;;;;;;22.70;10.63;;;-0.70;73.00;;;;;;5052383;28;20391;-74
2021/12/22 07:17:21;;;;;;;42.33;27.90;;;-0.70;72.20;;;;;;5052900;28;20264;-71
2021/12/22 07:19:46;;;;;;;34.90;13.25;;;-0.70;69.90;;;;;;5050020;28;20054;-74
2021/12/22 07:22:12;;;;;;;42.88;28.10;;;-1.00;68.00;;;;;;5051898;28;20029;-80
2021/12/22 07:24:38;;;;;;;27.60;11.77;;;-1.20;67.60;;;;;;5036268;28;20037;-74
2021/12/22 07:27:03;;;;;;;39.67;24.90;;;-1.10;67.60;;;;;;5037428;28;20364;-75
2021/12/22 07:29:32;;;;;;;38.40;24.35;;;-1.20;66.40;;;;;;5034720;28;20038;-74
2021/12/22 07:31:58;;;;;;;36.20;23.83;;;-1.00;64.80;;;;;;5036165;28;20033;-73
2021/12/22 07:34:38;;;;;;;29.98;9.43;;;-0.90;63.70;;;;;;5046534;28;20463;-74
2021/12/22 07:37:24;;;;;;;25.15;11.27;;;-0.80;63.40;;;;;;5052767;28;20025;-76
2021/12/22 07:39:51;;;;;;;25.10;12.15;;;-1.00;63.40;;;;;;5053110;28;20033;-75
2021/12/22 07:42:17;;;;;;;23.15;11.63;;;-1.40;63.70;;;;;;5040422;28;20036;-76
2021/12/22 07:44:43;;;;;;;25.52;10.05;;;-1.60;65.40;;;;;;5044174;28;20024;-71
2021/12/22 07:47:08;;;;;;;17.20;8.50;;;-1.40;67.30;;;;;;5042566;28;20087;-79
2021/12/22 07:49:34;;;;;;;17.85;8.13;;;-0.90;68.80;;;;;;5037220;28;20043;-72
2021/12/22 07:52:00;;;;;;;26.92;18.60;;;-0.20;69.20;;;;;;5034469;28;20434;-73
2021/12/22 07:54:25;;;;;;;26.10;17.92;;;0.40;66.90;;;;;;5034434;28;20032;-72
2021/12/22 07:56:51;;;;;;;23.10;17.10;;;0.90;63.40;;;;;;5041072;28;20056;-73
2021/12/22 07:59:17;;;;;;;22.00;15.02;;;1.20;60.50;;;;;;5045454;28;20100;-70
2021/12/22 08:01:42;;;;;;;22.88;15.95;;;1.60;58.70;;;;;;5043136;28;20028;-72
2021/12/22 08:04:08;;;;;;;22.30;14.88;;;1.80;57.50;;;;;;5050922;28;20025;-76
2021/12/22 08:06:34;;;;;;;23.17;16.10;;;2.20;56.10;;;;;;5045223;28;20025;-75
2021/12/22 08:09:00;;;;;;;18.52;12.90;;;2.40;55.20;;;;;;5038247;28;20057;-75
2021/12/22 08:11:25;;;;;;;16.67;11.65;;;2.60;54.20;;;;;;5043034;28;20352;-73
2021/12/22 08:13:51;;;;;;;18.05;13.27;;;2.60;53.20;;;;;;5040411;28;20037;-74
2021/12/22 08:16:17;;;;;;;18.30;12.52;;;2.70;52.80;;;;;;5041173;28;20116;-73
2021/12/22 08:18:43;;;;;;;18.17;13.27;;;3.00;52.80;;;;;;5048778;28;20470;-77
2021/12/22 08:21:08;;;;;;;18.63;12.88;;;3.10;51.10;;;;;;5038823;28;20056;-74
2021/12/22 08:23:34;;;;;;;17.95;13.10;;;3.30;51.30;;;;;;5038151;28;20038;-74
2021/12/22 08:26:00;;;;;;;17.33;11.75;;;3.50;50.40;;;;;;5048318;28;20021;-75
2021/12/22 08:28:25;;;;;;;15.10;10.98;;;3.90;50.10;;;;;;5043000;28;20375;-74
2021/12/22 08:30:51;;;;;;;15.48;10.98;;;4.30;49.20;;;;;;5049137;28;20032;-74
2021/12/22 08:33:22;;;;;;;15.73;11.43;;;4.50;48.70;;;;;;5041230;28;20037;-75
2021/12/22 08:38:53;;;;;;;12.60;8.90;;;4.50;46.60;;;;;;5035644;28;20088;-70
2021/12/22 08:41:23;;;;;;;13.60;9.07;;;4.20;46.60;;;;;;5035999;28;20452;-69
2021/12/22 08:43:50;;;;;;;14.05;9.88;;;4.10;46.70;;;;;;5038495;28;20041;-70
2021/12/22 08:46:16;;;;;;;12.43;8.82;;;3.70;45.80;;;;;;5042354;28;20040;-74
2021/12/22 08:48:42;;;;;;;11.77;8.00;;;3.20;46.00;;;;;;5046786;28;20459;-73
2021/12/22 08:51:08;;;;;;;11.52;8.30;;;3.00;46.50;;;;;;5040738;28;20029;-74
2021/12/22 08:53:34;;;;;;;12.05;8.15;;;2.60;46.20;;;;;;5040791;28;20025;-72
2021/12/22 08:55:59;;;;;;;15.05;8.65;;;2.30;46.80;;;;;;5045240;28;20390;-73
2021/12/22 08:58:25;;;;;;;10.82;8.00;;;1.90;46.50;;;;;;5041663;28;20053;-70
2021/12/22 09:00:51;;;;;;;13.52;9.45;;;1.10;46.60;;;;;;5046262;28;20041;-74
2021/12/22 09:03:16;;;;;;;11.75;4.30;;;0.20;47.20;;;;;;5043126;28;20063;-74
2021/12/22 09:05:42;;;;;;;11.77;8.73;;;-0.50;48.30;;;;;;5045089;28;20530;-77
2021/12/22 09:08:08;;;;;;;13.57;9.65;;;-0.70;50.40;;;;;;5040458;28;20017;-70
2021/12/22 09:10:33;;;;;;;11.93;4.38;;;-0.50;50.90;;;;;;5047799;28;20457;-75
2021/12/22 09:12:59;;;;;;;4.40;2.70;;;-0.50;50.80;;;;;;5045986;28;20128;-71
2021/12/22 09:15:25;;;;;;;13.52;9.80;;;-0.30;51.70;;;;;;5039007;28;20021;-73
2021/12/22 09:17:52;;;;;;;10.48;4.82;;;-0.10;51.60;;;;;;5045531;28;20033;-73
2021/12/22 09:20:18;;;;;;;16.70;10.18;;;0.10;51.40;;;;;;5037928;28;20535;-73
2021/12/22 09:22:43;;;;;;;11.90;8.73;;;0.00;51.00;;;;;;5038395;28;20105;-75
2021/12/22 09:25:09;;;;;;;14.05;10.43;;;-0.20;50.80;;;;;;5043567;28;20433;-69
2021/12/22 09:27:35;;;;;;;7.32;4.38;;;-0.20;50.80;;;;;;5039277;28;20048;-73
2021/12/22 09:30:02;;;;;;;13.57;9.30;;;-0.10;51.80;;;;;;5035417;28;20443;-74
2021/12/22 09:32:28;;;;;;;16.60;10.43;;;0.60;52.40;;;;;;5046021;28;20029;-70
2021/12/22 09:34:53;;;;;;;13.73;9.10;;;1.20;50.80;;;;;;5042278;28;20033;-70
2021/12/22 09:37:19;;;;;;;14.55;10.00;;;1.70;49.90;;;;;;5048490;28;20387;-72
2021/12/22 09:39:45;;;;;;;13.73;9.07;;;2.20;49.20;;;;;;5036954;28;20041;-76
2021/12/22 09:42:12;;;;;;;13.70;9.35;;;2.50;48.00;;;;;;5048271;28;20479;-75
2021/12/22 09:44:44;;;;;;;15.13;10.55;;;2.50;47.10;;;;;;5044864;28;20072;-75
2021/12/22 09:47:12;;;;;;;17.80;11.95;;;2.30;47.40;;;;;;5042520;28;20404;-74
2021/12/22 09:52:21;;;;;;;12.93;9.00;;;3.20;47.90;;;;;;5047829;28;20033;-72
2021/12/22 09:54:50;;;;;;;13.20;9.05;;;3.30;46.30;;;;;;5039912;28;20028;-73
2021/12/22 09:57:17;;;;;;;10.43;8.52;;;3.20;46.00;;;;;;5044939;28;20072;-75
2021/12/22 09:59:45;;;;;;;14.70;9.57;;;3.50;46.00;;;;;;5060528;28;20033;-73
2021/12/22 10:02:11;;;;;;;12.77;9.02;;;3.50;45.40;;;;;;5050590;28;20036;-75
2021/12/22 10:04:37;;;;;;;12.60;9.15;;;3.40;45.30;;;;;;5051673;28;20029;-74
2021/12/22 10:07:03;;;;;;;10.55;7.28;;;3.50;45.30;;;;;;5055267;28;20111;-73
2021/12/22 10:09:31;;;;;;;11.95;8.57;;;3.60;45.00;;;;;;5047700;28;20080;-73
2021/12/22 10:12:04;;;;;;;10.98;7.95;;;3.60;44.60;;;;;;5052393;28;20048;-73
2021/12/22 10:14:30;;;;;;;11.98;8.00;;;3.60;44.20;;;;;;5044452;28;20128;-73
2021/12/22 10:16:56;;;;;;;16.05;9.57;;;3.80;44.40;;;;;;5053755;28;20040;-73
2021/12/22 10:19:26;;;;;;;15.18;9.65;;;3.90;43.90;;;;;;5048932;28;20033;-73
2021/12/22 10:21:53;;;;;;;11.25;8.80;;;4.20;44.00;;;;;;5045519;28;20033;-74
2021/12/22 10:24:22;;;;;;;12.10;8.70;;;4.50;43.70;;;;;;5046173;28;20033;-73
2021/12/22 10:27:01;;;;;;;13.90;8.57;;;4.50;43.10;;;;;;5048824;28;20102;-73
2021/12/22 10:29:32;;;;;;;11.13;7.60;;;4.40;42.50;;;;;;5045532;28;20036;-75
2021/12/22 10:32:13;;;;;;;11.43;7.45;;;4.60;42.90;;;;;;5044347;28;20372;-75
2021/12/22 10:35:01;;;;;;;15.40;8.25;;;4.90;42.10;;;;;;5037731;28;20108;-75
2021/12/22 10:37:41;;;;;;;13.90;8.93;;;5.00;42.20;;;;;;5049785;28;20029;-77
2021/12/22 10:40:24;;;;;;;15.73;9.77;;;5.00;41.60;;;;;;5043153;28;20087;-71
2021/12/22 10:42:51;;;;;;;18.58;10.07;;;4.30;41.20;;;;;;5050761;28;20118;-73
2021/12/22 10:45:18;;;;;;;15.07;8.68;;;3.60;41.60;;;;;;5045543;28;20032;-70
2021/12/22 10:50:58;;;;;;;10.65;8.32;;;1.80;42.70;;;;;;5049262;28;20040;-71
2021/12/22 10:53:24;;;;;;;11.75;8.38;;;1.10;44.20;;;;;;5044548;28;20492;-74
2021/12/22 10:55:53;;;;;;;13.93;9.18;;;0.90;45.20;;;;;;5043038;28;20116;-74
2021/12/22 10:58:25;;;;;;;14.10;8.80;;;0.70;45.10;;;;;;5048466;28;20091;-76
2021/12/22 11:01:11;;;;;;;16.60;9.70;;;0.20;45.60;;;;;;5047903;28;20033;-71
2021/12/22 11:03:46;;;;;;;9.52;3.80;;;-0.20;46.10;;;;;;5047774;28;20037;-73
2021/12/22 11:06:17;;;;;;;16.48;11.07;;;-0.80;46.30;;;;;;5048409;28;20028;-72
2021/12/22 11:09:04;;;;;;;14.40;10.02;;;-1.20;47.30;;;;;;5049439;28;20040;-73
2021/12/22 11:11:36;;;;;;;6.75;4.53;;;-1.70;48.40;;;;;;5034823;28;20372;-73
2021/12/22 11:14:02;;;;;;;7.53;4.78;;;-2.00;49.10;;;;;;5038714;28;20095;-71
2021/12/22 11:16:28;;;;;;;15.60;11.05;;;-2.10;50.00;;;;;;5038717;28;20025;-73
2021/12/22 11:18:53;;;;;;;9.63;4.53;;;-2.10;50.20;;;;;;5040599;28;20474;-73
2021/12/22 11:21:30;;;;;;;9.88;5.57;;;-2.20;50.20;;;;;;5049522;28;20479;-73
2021/12/22 11:23:56;;;;;;;6.05;3.70;;;-2.30;50.80;;;;;;5044032;28;20033;-70
2021/12/22 11:26:22;;;;;;;16.90;10.45;;;-2.00;51.80;;;;;;5042714;28;20037;-75
2021/12/22 11:28:48;;;;;;;9.95;5.57;;;-1.50;51.80;;;;;;5046635;28;20021;-78
2021/12/22 11:31:14;;;;;;;8.88;4.00;;;-0.90;51.30;;;;;;5043463;28;20037;-71
2021/12/22 11:33:46;;;;;;;14.07;9.85;;;-0.90;50.70;;;;;;5038888;28;20463;-76
2021/12/22 11:36:14;;;;;;;14.23;9.63;;;-0.70;50.90;;;;;;5039504;28;20025;-74
2021/12/22 11:38:42;;;;;;;11.23;8.80;;;-0.20;50.60;;;;;;5039443;28;20026;-75
2021/12/22 11:41:14;;;;;;;13.82;8.60;;;0.30;49.60;;;;;;5038169;28;20069;-73
2021/12/22 11:43:42;;;;;;;13.85;8.80;;;0.50;48.60;;;;;;5034293;28;20052;-72
2021/12/22 11:46:09;;;;;;;13.32;9.55;;;0.40;48.10;;;;;;5042701;28;20410;-72
2021/12/22 11:48:36;;;;;;;10.85;5.57;;;0.30;48.10;;;;;;5041694;28;20025;-73
2021/12/22 11:51:21;;;;;;;14.65;9.02;;;0.20;48.20;;;;;;5042924;28;20063;-70
2021/12/22 11:53:57;;;;;;;13.35;9.18;;;-0.40;48.30;;;;;;5044099;28;20110;-70
2021/12/22 11:56:49;;;;;;;6.07;3.55;;;-1.00;49.20;;;;;;5045723;28;20025;-70
2021/12/22 11:59:30;;;;;;;10.27;4.53;;;-1.40;50.20;;;;;;5045957;28;20033;-73
2021/12/22 12:02:15;;;;;;;9.77;4.40;;;-1.70;50.50;;;;;;5052785;28;20020;-73
2021/12/22 12:04:41;;;;;;;10.38;4.28;;;-2.00;51.10;;;;;;5048571;28;20029;-74
2021/12/22 12:07:06;;;;;;;8.55;5.15;;;-2.40;51.50;;;;;;5040020;28;20035;-74
2021/12/22 12:09:33;;;;;;;9.93;5.45;;;-2.70;52.10;;;;;;5044438;28;20044;-74
2021/12/22 12:11:59;;;;;;;8.55;4.57;;;-2.90;52.50;;;;;;5039207;28;20088;-77
2021/12/22 12:23:32;;;;;;;12.68;5.72;;;-3.80;54.70;;;;;;5047591;28;20043;-76
2021/12/22 12:26:03;;;;;;;6.47;3.60;;;-3.90;55.00;;;;;;5046193;28;20025;-79
2021/12/22 12:28:30;;;;;;;7.97;3.72;;;-4.10;55.20;;;;;;5043735;28;20494;-74
2021/12/22 12:31:00;;;;;;;7.40;4.57;;;-4.30;55.80;;;;;;5047626;28;20044;-74
2021/12/22 12:33:30;;;;;;;8.27;4.55;;;-4.40;55.90;;;;;;5036621;28;20096;-76
2021/12/22 12:36:05;;;;;;;11.77;5.40;;;-4.60;56.30;;;;;;5043289;28;20037;-73
2021/12/22 12:38:40;;;;;;;6.18;5.07;;;-4.60;56.50;;;;;;5042546;28;20021;-75
2021/12/22 12:41:17;;;;;;;15.38;6.25;;;-4.70;56.70;;;;;;5037644;28;20053;-74
2021/12/22 12:43:47;;;;;;;11.57;5.82;;;-4.70;56.80;;;;;;5048193;28;20036;-78
2021/12/22 12:46:39;;;;;;;10.52;5.22;;;-4.60;56.90;;;;;;5042121;28;20112;-71
2021/12/22 12:49:05;;;;;;;11.77;5.55;;;-4.70;56.90;;;;;;5035444;28;20036;-75
2021/12/22 12:51:49;;;;;;;15.23;5.93;;;-4.70;56.90;;;;;;5046845;28;20026;-71
2021/12/22 12:54:20;;;;;;;12.25;5.55;;;-4.80;56.80;;;;;;5045934;28;20040;-71
2021/12/22 12:56:58;;;;;;;7.03;4.80;;;-4.80;56.80;;;;;;5040319;28;20542;-78
2021/12/22 12:59:40;;;;;;;6.07;4.57;;;-4.90;56.90;;;;;;5037870;28;20040;-73
2021/12/22 13:02:19;;;;;;;5.95;4.57;;;-5.00;57.70;;;;;;5040918;28;20040;-74
2021/12/22 13:04:45;;;;;;;6.65;4.13;;;-5.10;57.10;;;;;;5045297;28;20479;-73
2021/12/22 13:07:16;;;;;;;2.60;2.42;;;-5.10;57.50;;;;;;5041627;28;20072;-75
2021/12/22 13:09:48;;;;;;;4.47;3.00;;;-5.10;57.80;;;;;;5033244;28;20136;-72
2021/12/22 13:17:49;;;;;;;5.43;3.90;;;-5.20;57.50;;;;;;5055523;28;20071;-75
2021/12/22 13:20:29;;;;;;;3.35;2.92;;;-5.40;57.50;;;;;;5055308;28;20116;-74